createdAt,value
2018-11-22T12:17:00.021Z,16.57
2018-11-22T12:19:30.686Z,16.90
2018-11-22T12:22:01.329Z,17.00
2018-11-22T12:24:32.016Z,16.30
2018-11-22T12:27:03.007Z,16.60
2018-11-22T12:29:33.680Z,16.10
2018-11-22T12:32:09.405Z,16.83
2018-11-22T12:34:45.340Z,16.67
2018-11-22T12:37:21.196Z,16.33
2018-11-22T12:39:51.880Z,15.37
2018-11-22T12:42:22.626Z,15.07
2018-11-22T12:44:57.796Z,17.83
2018-11-22T12:47:28.544Z,16.53
2018-11-22T12:50:00.139Z,16.33
2018-11-22T12:52:30.985Z,16.20
2018-11-22T12:55:01.734Z,16.37
2018-11-22T12:57:32.457Z,17.10
2018-11-22T13:00:03.184Z,16.80
2018-11-22T13:02:34.007Z,17.40
2018-11-22T13:05:04.806Z,17.23
2018-11-22T13:07:35.565Z,17.77
2018-11-22T13:10:11.204Z,18.03
2018-11-22T13:12:42.825Z,16.37
2018-11-22T13:15:15.397Z,17.17
2018-11-22T13:17:46.205Z,16.80
2018-11-22T13:20:18.544Z,15.77
2018-11-22T13:22:49.324Z,15.93
2018-11-22T13:25:21.505Z,16.73
2018-11-22T13:27:52.314Z,15.40
2018-11-22T13:30:24.530Z,15.73
2018-11-22T13:32:55.737Z,15.20
2018-11-22T13:35:26.449Z,15.30
2018-11-22T13:37:57.788Z,15.27
2018-11-22T13:40:28.555Z,16.57
2018-11-22T13:42:59.298Z,14.60
2018-11-22T13:45:30.246Z,15.57
2018-11-22T13:48:01.065Z,15.33
2018-11-22T13:50:33.105Z,15.17
2018-11-22T13:53:06.277Z,16.60
2018-11-22T13:55:37.057Z,16.47
2018-11-22T13:58:07.705Z,15.73
2018-11-22T14:00:38.490Z,15.63
2018-11-22T14:03:09.238Z,16.60
2018-11-22T14:05:40.067Z,18.43
2018-11-22T14:08:10.805Z,17.07
2018-11-22T14:10:41.527Z,16.80
2018-11-22T14:13:13.024Z,17.23
2018-11-22T14:15:44.200Z,16.40
2018-11-22T14:18:15.948Z,16.43
2018-11-22T14:20:46.686Z,16.47
2018-11-22T14:23:17.407Z,17.20
2018-11-22T14:25:49.158Z,17.17
2018-11-22T14:28:19.209Z,16.17
2018-11-22T14:30:49.905Z,16.67
2018-11-22T14:33:21.045Z,17.90
2018-11-22T14:35:51.715Z,16.93
2018-11-22T14:38:22.346Z,16.50
2018-11-22T14:40:53.097Z,17.13
2018-11-22T14:43:24.297Z,16.83
2018-11-22T14:45:54.986Z,17.17
2018-11-22T14:48:25.633Z,18.77
2018-11-22T14:51:19.481Z,16.53
2018-11-22T14:53:50.187Z,16.53
2018-11-22T14:56:20.929Z,16.43
2018-11-22T14:58:51.746Z,15.80
2018-11-22T15:01:22.466Z,16.00
2018-11-22T15:03:53.302Z,15.57
2018-11-22T15:06:23.881Z,16.20
2018-11-22T15:08:54.520Z,15.50
2018-11-22T15:11:25.175Z,14.63
2018-11-22T15:13:56.205Z,14.73
2018-11-22T15:16:26.828Z,14.57
2018-11-22T15:18:58.416Z,15.60
2018-11-22T15:21:29.345Z,13.50
2018-11-22T15:24:00.092Z,13.53
2018-11-22T15:26:30.884Z,14.37
2018-11-22T15:29:01.562Z,12.57
2018-11-22T15:31:32.364Z,12.10
2018-11-22T15:34:02.962Z,12.40
2018-11-22T15:36:34.003Z,13.17
2018-11-22T15:39:05.269Z,12.20
2018-11-22T15:41:36.462Z,12.50
2018-11-22T15:44:08.286Z,12.57
2018-11-22T15:46:38.873Z,12.07
2018-11-22T15:49:09.505Z,12.23
2018-11-22T15:51:40.199Z,11.30
2018-11-22T15:54:10.829Z,12.07
2018-11-22T15:56:42.541Z,11.40
2018-11-22T15:59:13.142Z,12.03
2018-11-22T16:01:43.838Z,11.27
2018-11-22T16:04:14.502Z,11.13
2018-11-22T16:06:45.223Z,10.20
2018-11-22T16:09:16.005Z,9.83
2018-11-22T16:11:46.690Z,9.80
2018-11-22T16:14:17.452Z,9.90
2018-11-22T16:16:48.097Z,9.60
2018-11-22T16:19:18.720Z,10.10
2018-11-22T16:21:49.407Z,10.30
2018-11-22T16:24:20.202Z,10.30
2018-11-22T16:26:50.914Z,10.90
2018-11-22T16:29:21.662Z,11.50
2018-11-22T16:31:52.374Z,10.90
2018-11-22T16:34:23.012Z,11.20
2018-11-22T16:36:53.697Z,11.63
2018-11-22T16:39:24.444Z,13.30
2018-11-22T16:41:55.470Z,13.10
2018-11-22T16:44:26.295Z,12.63
2018-11-22T16:46:57.141Z,12.27
2018-11-22T16:49:27.968Z,11.67
2018-11-22T16:51:58.851Z,12.30
2018-11-22T16:54:29.643Z,12.13
2018-11-22T16:57:00.400Z,11.73
2018-11-22T16:59:31.242Z,14.07
2018-11-22T17:02:01.932Z,12.03
2018-11-22T17:04:32.633Z,12.87
2018-11-22T17:07:03.505Z,12.87
2018-11-22T17:09:34.543Z,12.03
2018-11-22T17:12:05.333Z,12.70
2018-11-22T17:14:36.127Z,13.80
2018-11-22T17:17:07.561Z,12.77
2018-11-22T17:19:38.310Z,13.33
2018-11-22T17:22:09.048Z,13.27
2018-11-22T17:24:39.925Z,13.77
2018-11-22T17:27:10.685Z,13.10
2018-11-22T17:29:41.573Z,12.37
2018-11-22T17:32:12.408Z,12.97
2018-11-22T17:34:43.200Z,11.87
2018-11-22T17:37:13.927Z,12.00
2018-11-22T17:39:44.706Z,13.70
2018-11-22T17:42:15.508Z,13.37
2018-11-22T17:44:46.226Z,12.53
2018-11-22T17:47:16.977Z,13.37
2018-11-22T17:49:47.656Z,13.13
2018-11-22T17:52:18.684Z,12.60
2018-11-22T17:54:53.234Z,13.20
2018-11-22T17:57:24.077Z,12.90
2018-11-22T17:59:54.677Z,13.03
2018-11-22T18:02:25.514Z,13.40
2018-11-22T18:04:56.237Z,14.20
2018-11-22T18:07:27.964Z,14.47
2018-11-22T18:09:58.640Z,12.63
2018-11-22T18:12:29.450Z,12.47
2018-11-22T18:15:00.206Z,13.27
2018-11-22T18:17:30.935Z,12.13
2018-11-22T18:20:01.652Z,12.40
2018-11-22T18:22:32.325Z,11.93
2018-11-22T18:25:03.085Z,13.40
2018-11-22T18:27:33.812Z,12.90
2018-11-22T18:30:05.306Z,12.30
2018-11-22T18:32:36.132Z,15.23
2018-11-22T18:35:08.769Z,13.27
2018-11-22T18:37:39.670Z,12.17
2018-11-22T18:40:16.320Z,12.50
2018-11-22T18:42:48.446Z,12.63
2018-11-22T18:45:24.265Z,11.60
2018-11-22T18:47:55.265Z,9.97
2018-11-22T18:50:27.076Z,10.90
2018-11-22T18:52:58.805Z,10.63
2018-11-22T18:55:29.556Z,10.57
2018-11-22T18:58:00.425Z,10.43
2018-11-22T19:00:33.105Z,11.23
2018-11-22T19:03:06.928Z,11.17
2018-11-22T19:05:37.609Z,11.40
2018-11-22T19:08:08.408Z,11.47
2018-11-22T19:10:40.838Z,11.27
2018-11-22T19:13:12.304Z,10.10
2018-11-22T19:15:44.537Z,10.53
2018-11-22T19:18:15.657Z,13.83
2018-11-22T19:20:46.874Z,14.43
2018-11-22T19:23:18.043Z,16.47
2018-11-22T19:25:48.745Z,14.30
2018-11-22T19:28:19.978Z,14.90
2018-11-22T19:30:50.667Z,15.63
2018-11-22T19:33:21.610Z,14.80
2018-11-22T19:35:53.765Z,14.17
2018-11-22T19:38:24.588Z,13.80
2018-11-22T19:40:55.425Z,13.40
2018-11-22T19:43:26.217Z,13.40
2018-11-22T19:45:56.949Z,13.03
2018-11-22T19:48:27.658Z,14.87
2018-11-22T19:51:01.716Z,15.90
2018-11-22T19:53:29.498Z,14.83
2018-11-22T19:56:01.262Z,15.90
2018-11-22T19:58:32.024Z,15.87
2018-11-22T20:01:07.579Z,15.70
2018-11-22T20:03:34.105Z,15.37
2018-11-22T20:06:04.885Z,14.70
2018-11-22T20:08:36.064Z,13.70
2018-11-22T20:11:07.179Z,13.90
2018-11-22T20:13:38.148Z,14.53
2018-11-22T20:16:09.337Z,14.70
2018-11-22T20:18:40.017Z,14.60
2018-11-22T20:21:10.986Z,14.27
2018-11-22T20:23:42.016Z,14.63
2018-11-22T20:26:12.873Z,14.53
2018-11-22T20:28:43.631Z,15.50
2018-11-22T20:31:14.427Z,15.33
2018-11-22T20:33:45.145Z,15.23
2018-11-22T20:36:15.903Z,14.60
2018-11-22T20:38:46.599Z,13.03
2018-11-22T20:41:17.676Z,13.30
2018-11-22T20:43:48.445Z,12.63
2018-11-22T20:46:19.142Z,12.33
2018-11-22T20:48:54.585Z,11.73
2018-11-22T20:51:26.845Z,11.97
2018-11-22T20:53:57.648Z,11.37
2018-11-22T20:56:28.325Z,10.87
2018-11-22T20:58:59.048Z,10.83
2018-11-22T21:01:29.765Z,11.47
2018-11-22T21:04:00.607Z,12.33
2018-11-22T21:06:31.344Z,11.67
2018-11-22T21:09:02.204Z,11.00
2018-11-22T21:11:32.926Z,10.77
2018-11-22T21:14:05.166Z,11.63
2018-11-22T21:16:35.917Z,10.80
2018-11-22T21:19:07.008Z,9.97
2018-11-22T21:21:37.797Z,9.93
2018-11-22T21:24:08.645Z,10.00
2018-11-22T21:26:39.713Z,9.97
2018-11-22T21:29:10.436Z,11.03
2018-11-22T21:31:41.145Z,11.17
2018-11-22T21:34:11.833Z,11.83
2018-11-22T21:36:42.663Z,12.63
2018-11-22T21:39:13.946Z,12.20
2018-11-22T21:41:45.746Z,11.77
2018-11-22T21:44:16.444Z,14.57
2018-11-22T21:46:47.137Z,15.10
2018-11-22T21:49:18.188Z,14.40
2018-11-22T21:51:48.782Z,12.13
2018-11-22T21:54:19.726Z,13.90
2018-11-22T21:56:50.441Z,13.73
2018-11-22T21:59:21.188Z,15.33
2018-11-22T22:01:52.265Z,15.17
2018-11-22T22:04:22.985Z,14.33
2018-11-22T22:06:53.617Z,14.17
2018-11-22T22:09:24.271Z,13.70
2018-11-22T22:11:54.882Z,14.57
2018-11-22T22:14:26.108Z,14.33
2018-11-22T22:16:56.781Z,14.07
2018-11-22T22:19:27.537Z,14.57
2018-11-22T22:21:58.589Z,14.80
2018-11-22T22:24:29.332Z,14.70
2018-11-22T22:27:00.035Z,14.23
2018-11-22T22:29:31.146Z,14.20
2018-11-22T22:32:01.869Z,14.17
2018-11-22T22:34:32.578Z,14.57
2018-11-22T22:37:03.246Z,16.90
2018-11-22T22:39:33.957Z,19.30
2018-11-22T22:42:04.765Z,18.30
2018-11-22T22:44:35.525Z,17.37
2018-11-22T22:47:06.577Z,17.40
2018-11-22T22:49:37.341Z,17.20
2018-11-22T22:52:08.050Z,17.90
2018-11-22T22:54:38.848Z,18.93
2018-11-22T22:57:09.527Z,18.17
2018-11-22T22:59:40.505Z,18.83
2018-11-22T23:02:11.265Z,17.73
2018-11-22T23:04:42.078Z,18.33
2018-11-22T23:07:19.476Z,18.37
2018-11-22T23:09:50.185Z,16.87
2018-11-22T23:12:20.905Z,16.03
2018-11-22T23:14:51.625Z,16.80
2018-11-22T23:17:22.363Z,16.37
2018-11-22T23:19:53.084Z,17.57
2018-11-22T23:22:23.951Z,17.17
2018-11-22T23:24:54.726Z,17.53
2018-11-22T23:27:25.418Z,19.33
2018-11-22T23:29:56.165Z,18.67
2018-11-22T23:32:26.867Z,17.43
2018-11-22T23:34:57.592Z,18.07
2018-11-22T23:37:28.276Z,17.60
2018-11-22T23:39:59.004Z,17.60
2018-11-22T23:42:29.704Z,17.90
2018-11-22T23:45:00.446Z,18.60
2018-11-22T23:47:31.145Z,18.37
2018-11-22T23:50:01.866Z,18.90
2018-11-22T23:52:32.608Z,18.63
2018-11-22T23:55:03.305Z,18.03
2018-11-22T23:57:34.246Z,17.10
